createdAt,value
2018-09-19T00:02:05.024Z,8.08
2018-09-19T00:04:32.568Z,9.55
2018-09-19T00:07:00.102Z,9.20
2018-09-19T00:09:27.643Z,9.15
2018-09-19T00:11:55.194Z,8.88
2018-09-19T00:14:22.756Z,8.20
2018-09-19T00:16:50.266Z,8.35
2018-09-19T00:19:17.794Z,8.90
2018-09-19T00:21:45.299Z,8.58
2018-09-19T00:24:12.856Z,8.28
2018-09-19T00:26:40.379Z,8.03
2018-09-19T00:29:07.930Z,7.95
2018-09-19T00:31:35.441Z,8.38
2018-09-19T00:34:02.951Z,7.85
2018-09-19T00:36:30.461Z,8.75
2018-09-19T00:38:57.987Z,8.20
2018-09-19T00:41:25.516Z,8.25
2018-09-19T00:43:53.036Z,8.50
2018-09-19T00:46:20.552Z,8.15
2018-09-19T00:48:48.085Z,9.15
2018-09-19T00:51:15.600Z,9.13
2018-09-19T00:53:43.247Z,8.98
2018-09-19T00:56:10.839Z,10.25
2018-09-19T00:58:38.340Z,10.25
2018-09-19T01:01:05.882Z,9.13
2018-09-19T01:03:33.457Z,9.65
2018-09-19T01:06:00.964Z,9.30
2018-09-19T01:08:28.492Z,9.55
2018-09-19T01:10:56.081Z,9.20
2018-09-19T01:13:23.567Z,9.30
2018-09-19T01:15:51.110Z,9.93
2018-09-19T01:18:18.640Z,9.28
2018-09-19T01:20:46.176Z,9.25
2018-09-19T01:23:13.680Z,9.38
2018-09-19T01:25:41.198Z,9.45
2018-09-19T01:28:08.714Z,10.05
2018-09-19T01:30:36.249Z,9.75
2018-09-19T01:33:03.772Z,10.38
2018-09-19T01:35:31.314Z,9.50
2018-09-19T01:37:58.831Z,9.83
2018-09-19T01:40:26.385Z,9.33
2018-09-19T01:42:53.902Z,10.20
2018-09-19T01:45:21.430Z,10.10
2018-09-19T01:47:48.962Z,9.78
2018-09-19T01:50:16.738Z,10.55
2018-09-19T01:52:44.259Z,10.98
2018-09-19T01:55:11.801Z,9.83
2018-09-19T01:57:39.319Z,10.40
2018-09-19T02:00:06.861Z,10.28
2018-09-19T02:02:34.396Z,11.00
2018-09-19T02:05:01.973Z,11.20
2018-09-19T02:07:29.502Z,11.35
2018-09-19T02:09:57.026Z,11.05
2018-09-19T02:12:24.574Z,10.75
2018-09-19T02:14:52.092Z,11.45
2018-09-19T02:17:19.622Z,10.75
2018-09-19T02:19:47.152Z,11.18
2018-09-19T02:22:14.672Z,11.75
2018-09-19T02:24:42.476Z,11.10
2018-09-19T02:27:10.014Z,11.00
2018-09-19T02:29:37.561Z,11.78
2018-09-19T02:32:05.249Z,11.38
2018-09-19T02:34:32.769Z,11.38
2018-09-19T02:37:00.316Z,11.78
2018-09-19T02:39:27.822Z,11.18
2018-09-19T02:41:55.343Z,11.68
2018-09-19T02:44:22.859Z,11.43
2018-09-19T02:46:50.420Z,11.70
2018-09-19T02:49:17.935Z,11.65
2018-09-19T02:51:45.472Z,11.45
2018-09-19T02:54:13.060Z,11.68
2018-09-19T02:56:40.595Z,11.43
2018-09-19T02:59:08.156Z,12.03
2018-09-19T03:01:35.655Z,12.20
2018-09-19T03:04:04.359Z,11.43
2018-09-19T03:06:31.889Z,11.97
2018-09-19T03:08:59.407Z,12.03
2018-09-19T03:11:26.957Z,12.78
2018-09-19T03:13:54.483Z,11.65
2018-09-19T03:16:22.002Z,11.45
2018-09-19T03:18:49.524Z,12.23
2018-09-19T03:21:17.042Z,12.20
2018-09-19T03:23:44.576Z,11.40
2018-09-19T03:26:12.103Z,11.35
2018-09-19T03:28:39.630Z,11.73
2018-09-19T03:31:07.155Z,11.20
2018-09-19T03:33:34.687Z,11.78
2018-09-19T03:36:02.216Z,10.93
2018-09-19T03:38:29.748Z,11.70
2018-09-19T03:40:57.272Z,11.60
2018-09-19T03:43:24.804Z,11.50
2018-09-19T03:45:52.348Z,10.90
2018-09-19T03:48:19.869Z,11.73
2018-09-19T03:50:47.395Z,11.47
2018-09-19T03:53:14.918Z,11.30
2018-09-19T03:55:42.452Z,11.90
2018-09-19T03:58:09.968Z,12.23
2018-09-19T04:00:37.492Z,12.53
2018-09-19T04:03:05.023Z,12.97
2018-09-19T04:05:32.544Z,11.77
2018-09-19T04:08:00.069Z,12.10
2018-09-19T04:10:27.608Z,12.67
2018-09-19T04:12:55.128Z,12.83
2018-09-19T04:15:22.650Z,12.67
2018-09-19T04:17:50.246Z,12.20
2018-09-19T04:20:17.740Z,12.20
2018-09-19T04:22:45.267Z,12.07
2018-09-19T04:25:12.803Z,12.37
2018-09-19T04:27:40.318Z,12.40
2018-09-19T04:30:07.856Z,13.10
2018-09-19T04:32:35.401Z,12.50
2018-09-19T04:35:02.939Z,12.23
2018-09-19T04:37:30.481Z,12.53
2018-09-19T04:39:58.034Z,13.23
2018-09-19T04:42:25.574Z,12.03
2018-09-19T04:44:53.111Z,12.70
2018-09-19T04:47:20.661Z,12.80
2018-09-19T04:49:48.200Z,12.03
2018-09-19T04:52:15.756Z,12.37
2018-09-19T04:54:43.292Z,12.37
2018-09-19T04:57:17.669Z,11.73
2018-09-19T04:59:45.204Z,13.43
2018-09-19T05:02:12.739Z,12.90
2018-09-19T05:04:40.268Z,12.90
2018-09-19T05:07:07.862Z,12.40
2018-09-19T05:09:35.364Z,12.93
2018-09-19T05:12:02.918Z,12.23
2018-09-19T05:14:30.499Z,12.77
2018-09-19T05:16:58.051Z,12.50
2018-09-19T05:19:25.633Z,13.10
2018-09-19T05:21:53.152Z,12.60
2018-09-19T05:24:20.692Z,12.23
2018-09-19T05:26:48.246Z,12.53
2018-09-19T05:29:15.790Z,13.37
2018-09-19T05:31:43.391Z,12.57
2018-09-19T05:34:10.880Z,12.80
2018-09-19T05:36:38.427Z,12.37
2018-09-19T05:39:07.095Z,12.60
2018-09-19T05:41:34.741Z,13.97
2018-09-19T05:44:02.292Z,13.73
2018-09-19T05:46:29.898Z,12.87
2018-09-19T05:48:57.397Z,12.83
2018-09-19T05:51:24.946Z,11.70
2018-09-19T05:53:52.467Z,11.87
2018-09-19T05:56:20.008Z,11.07
2018-09-19T05:58:47.536Z,11.37
2018-09-19T06:01:15.083Z,10.80
2018-09-19T06:03:42.614Z,10.30
2018-09-19T06:06:10.169Z,10.75
2018-09-19T06:08:37.711Z,10.60
2018-09-19T06:11:05.436Z,10.45
2018-09-19T06:13:32.961Z,10.63
2018-09-19T06:16:00.512Z,10.20
2018-09-19T06:18:28.071Z,10.43
2018-09-19T06:20:55.596Z,9.90
2018-09-19T06:23:23.131Z,10.58
2018-09-19T06:25:50.702Z,10.32
2018-09-19T06:28:18.209Z,10.40
2018-09-19T06:30:45.728Z,11.70
2018-09-19T06:33:13.365Z,12.28
2018-09-19T06:35:40.815Z,11.75
2018-09-19T06:38:08.347Z,11.15
2018-09-19T06:40:35.922Z,11.43
2018-09-19T06:43:03.536Z,11.90
2018-09-19T06:45:31.099Z,12.80
2018-09-19T06:47:58.591Z,10.82
2018-09-19T06:50:26.120Z,12.60
2018-09-19T06:52:53.643Z,12.90
2018-09-19T06:55:21.161Z,11.80
2018-09-19T06:57:48.746Z,12.35
2018-09-19T07:00:16.273Z,11.80
2018-09-19T07:02:43.841Z,12.10
2018-09-19T07:05:11.331Z,12.07
2018-09-19T07:07:38.851Z,11.25
2018-09-19T07:10:06.382Z,12.00
2018-09-19T07:12:33.916Z,11.20
2018-09-19T07:15:01.443Z,11.48
2018-09-19T07:17:28.994Z,10.80
2018-09-19T07:19:56.539Z,10.85
2018-09-19T07:22:24.067Z,10.43
2018-09-19T07:24:51.587Z,10.53
2018-09-19T07:27:19.113Z,10.88
2018-09-19T07:29:46.640Z,9.78
2018-09-19T07:32:14.195Z,9.20
2018-09-19T07:34:41.804Z,9.63
2018-09-19T07:37:09.345Z,9.35
2018-09-19T07:39:36.872Z,9.30
2018-09-19T07:42:04.493Z,8.95
2018-09-19T07:44:31.987Z,9.75
2018-09-19T07:46:59.521Z,9.43
2018-09-19T07:49:27.085Z,9.18
2018-09-19T07:51:54.620Z,9.50
2018-09-19T07:54:22.164Z,9.88
2018-09-19T07:56:49.754Z,8.93
2018-09-19T07:59:17.251Z,9.10
2018-09-19T08:01:44.768Z,9.10
2018-09-19T08:04:12.316Z,9.30
2018-09-19T08:06:39.862Z,8.55
2018-09-19T08:09:08.313Z,9.10
2018-09-19T08:11:35.782Z,9.83
2018-09-19T08:14:03.468Z,9.38
2018-09-19T08:16:31.148Z,8.33
2018-09-19T08:18:58.670Z,9.28
2018-09-19T08:21:26.214Z,8.65
2018-09-19T08:23:53.907Z,8.10
2018-09-19T08:26:21.464Z,7.75
2018-09-19T08:28:49.011Z,7.85
2018-09-19T08:31:16.545Z,7.75
2018-09-19T08:33:44.260Z,7.87
2018-09-19T08:36:11.909Z,8.15
2018-09-19T08:38:39.588Z,8.18
2018-09-19T08:41:07.158Z,8.10
2018-09-19T08:43:34.687Z,7.90
2018-09-19T08:46:02.409Z,8.30
2018-09-19T08:48:29.949Z,7.87
2018-09-19T08:50:57.487Z,8.88
2018-09-19T08:53:25.031Z,8.55
2018-09-19T08:55:52.581Z,7.58
2018-09-19T08:58:20.120Z,8.30
2018-09-19T09:00:47.650Z,7.45
2018-09-19T09:03:15.203Z,7.75
2018-09-19T09:05:42.739Z,7.42
2018-09-19T09:08:10.288Z,8.38
2018-09-19T09:10:37.840Z,8.05
2018-09-19T09:13:05.612Z,8.85
2018-09-19T09:15:33.184Z,7.67
2018-09-19T09:18:00.734Z,7.47
2018-09-19T09:20:28.301Z,6.85
2018-09-19T09:22:55.844Z,7.83
2018-09-19T09:25:23.384Z,6.72
2018-09-19T09:27:50.926Z,7.22
2018-09-19T09:30:18.473Z,7.08
2018-09-19T09:32:46.021Z,7.22
2018-09-19T09:35:14.803Z,6.67
2018-09-19T09:37:43.506Z,7.50
2018-09-19T09:40:11.126Z,7.15
2018-09-19T09:42:38.638Z,7.20
2018-09-19T09:45:06.209Z,7.42
2018-09-19T09:47:33.699Z,7.03
2018-09-19T09:50:01.244Z,6.92
2018-09-19T09:52:28.768Z,6.80
2018-09-19T09:54:58.360Z,7.92
2018-09-19T09:57:25.895Z,7.28
2018-09-19T09:59:53.449Z,7.85
2018-09-19T10:02:34.221Z,6.97
2018-09-19T10:05:01.789Z,7.15
2018-09-19T10:07:29.332Z,7.42
2018-09-19T10:09:56.861Z,7.92
2018-09-19T10:12:24.388Z,7.60
2018-09-19T10:14:51.904Z,6.80
2018-09-19T10:17:19.427Z,6.65
2018-09-19T10:19:46.952Z,6.65
2018-09-19T10:22:14.478Z,6.83
2018-09-19T10:24:41.995Z,7.87
2018-09-19T10:27:09.506Z,7.20
2018-09-19T10:29:37.088Z,6.92
2018-09-19T10:32:04.630Z,7.58
2018-09-19T10:34:32.147Z,6.75
2018-09-19T10:36:59.663Z,7.80
2018-09-19T10:39:27.184Z,7.08
2018-09-19T10:41:54.709Z,7.67
2018-09-19T10:44:22.248Z,7.78
2018-09-19T10:46:49.775Z,7.95
2018-09-19T10:49:17.313Z,8.95
2018-09-19T10:51:45.133Z,9.35
2018-09-19T10:54:12.696Z,8.73
2018-09-19T10:56:40.259Z,9.00
2018-09-19T10:59:07.803Z,8.93
2018-09-19T11:01:35.347Z,9.30
2018-09-19T11:04:02.899Z,9.45
2018-09-19T11:06:30.452Z,9.90
2018-09-19T11:08:57.974Z,10.48
2018-09-19T11:11:25.517Z,11.78
2018-09-19T11:16:27.335Z,10.78
2018-09-19T11:18:54.871Z,10.63
2018-09-19T11:21:22.408Z,10.10
2018-09-19T11:23:49.935Z,10.70
2018-09-19T11:26:17.514Z,10.90
2018-09-19T11:28:45.055Z,10.88
2018-09-19T11:31:12.639Z,10.93
2018-09-19T11:33:40.206Z,9.93
2018-09-19T11:36:07.731Z,9.88
2018-09-19T11:38:35.281Z,9.53
2018-09-19T11:41:02.849Z,9.43
2018-09-19T11:43:30.416Z,10.40
2018-09-19T11:45:58.514Z,9.98
2018-09-19T11:48:26.035Z,9.43
2018-09-19T11:50:53.601Z,9.15
2018-09-19T11:53:27.115Z,9.13
2018-09-19T11:55:55.400Z,9.40
2018-09-19T11:58:22.964Z,9.08
2018-09-19T12:00:50.550Z,9.65
2018-09-19T12:03:18.086Z,10.43
2018-09-19T12:05:45.636Z,9.70
2018-09-19T12:08:13.164Z,9.25
2018-09-19T12:10:40.708Z,9.25
2018-09-19T12:13:08.240Z,8.70
2018-09-19T12:15:35.832Z,9.48
2018-09-19T12:18:03.364Z,9.80
2018-09-19T12:20:31.213Z,9.55
2018-09-19T12:22:58.748Z,9.40
2018-09-19T12:25:26.848Z,8.83
2018-09-19T12:27:54.380Z,9.15
2018-09-19T12:30:21.915Z,9.50
2018-09-19T12:32:49.429Z,8.75
2018-09-19T12:35:16.985Z,9.05
2018-09-19T12:37:44.661Z,9.20
2018-09-19T12:40:12.221Z,9.23
2018-09-19T12:42:39.762Z,9.23
2018-09-19T12:45:07.307Z,9.75
2018-09-19T12:47:34.831Z,9.63
2018-09-19T12:50:02.378Z,9.13
2018-09-19T12:52:29.925Z,8.93
2018-09-19T12:54:57.470Z,9.05
2018-09-19T12:57:25.007Z,9.40
2018-09-19T12:59:52.553Z,8.50
2018-09-19T13:02:20.135Z,8.30
2018-09-19T13:04:47.682Z,9.53
2018-09-19T13:07:15.231Z,9.20
2018-09-19T13:09:42.780Z,8.78
2018-09-19T13:12:10.355Z,8.65
2018-09-19T13:14:37.891Z,8.18
2018-09-19T13:17:05.448Z,7.62
2018-09-19T13:19:32.992Z,7.92
2018-09-19T13:22:00.532Z,7.25
2018-09-19T13:24:49.537Z,8.08
2018-09-19T13:27:17.091Z,7.78
2018-09-19T13:29:44.626Z,7.42
2018-09-19T13:32:12.225Z,7.87
2018-09-19T13:35:00.463Z,8.43
2018-09-19T13:37:27.988Z,8.20
2018-09-19T13:39:55.528Z,8.15
2018-09-19T13:42:23.069Z,7.62
2018-09-19T13:48:07.168Z,8.20
2018-09-19T13:51:01.528Z,7.92
2018-09-19T13:53:29.069Z,7.45
2018-09-19T13:55:56.624Z,8.15
2018-09-19T13:58:24.139Z,8.43
2018-09-19T14:00:51.672Z,8.73
2018-09-19T14:03:26.091Z,7.87
2018-09-19T14:05:53.612Z,8.13
2018-09-19T14:08:21.142Z,7.80
2018-09-19T14:10:48.658Z,7.65
2018-09-19T14:13:16.167Z,8.05
2018-09-19T14:15:43.696Z,7.90
2018-09-19T14:18:11.203Z,7.75
2018-09-19T14:20:38.729Z,7.50
2018-09-19T14:23:06.271Z,7.87
2018-09-19T14:25:34.140Z,7.85
2018-09-19T14:28:01.694Z,8.18
2018-09-19T14:30:29.220Z,7.75
2018-09-19T14:32:57.255Z,7.30
2018-09-19T14:35:24.826Z,7.65
2018-09-19T14:37:52.365Z,7.85
2018-09-19T14:40:19.920Z,7.67
2018-09-19T14:42:47.468Z,6.97
2018-09-19T14:45:15.011Z,8.35
2018-09-19T14:47:42.555Z,7.78
2018-09-19T14:50:10.108Z,7.10
2018-09-19T14:52:38.416Z,6.70
2018-09-19T14:55:06.000Z,6.20
2018-09-19T14:57:33.535Z,5.75
2018-09-19T15:00:01.072Z,6.15
2018-09-19T15:02:28.603Z,6.58
2018-09-19T15:04:56.134Z,5.75
2018-09-19T15:07:23.667Z,4.87
2018-09-19T15:09:51.192Z,4.10
2018-09-19T15:12:18.735Z,4.58
2018-09-19T15:14:46.264Z,4.20
2018-09-19T15:17:13.799Z,4.08
2018-09-19T15:19:41.340Z,4.00
2018-09-19T15:22:08.877Z,3.72
2018-09-19T15:24:36.419Z,3.80
2018-09-19T15:27:04.193Z,3.98
2018-09-19T15:29:31.736Z,4.10
2018-09-19T15:31:59.289Z,3.60
2018-09-19T15:34:26.824Z,3.47
2018-09-19T15:36:54.423Z,3.47
2018-09-19T15:39:21.936Z,3.65
2018-09-19T15:41:49.447Z,3.47
2018-09-19T15:44:16.985Z,3.70
2018-09-19T15:46:44.487Z,4.15
2018-09-19T15:49:12.096Z,4.47
2018-09-19T15:51:39.629Z,4.30
2018-09-19T15:54:07.160Z,4.55
2018-09-19T15:56:34.681Z,3.85
2018-09-19T15:59:02.215Z,4.10
2018-09-19T16:01:35.592Z,3.92
2018-09-19T16:04:03.150Z,3.98
2018-09-19T16:06:30.668Z,4.17
2018-09-19T16:08:58.224Z,4.30
2018-09-19T16:11:25.801Z,3.62
2018-09-19T16:13:53.319Z,4.00
2018-09-19T16:16:20.897Z,3.98
2018-09-19T16:18:48.463Z,4.62
2018-09-19T16:21:15.990Z,3.87
2018-09-19T16:23:43.507Z,4.17
2018-09-19T16:26:11.023Z,4.33
2018-09-19T16:28:39.103Z,3.95
2018-09-19T16:31:06.959Z,3.80
2018-09-19T16:33:34.497Z,3.87
2018-09-19T16:36:02.028Z,4.10
2018-09-19T16:38:29.564Z,4.22
2018-09-19T16:40:57.101Z,4.08
2018-09-19T16:43:24.627Z,5.10
2018-09-19T16:45:52.171Z,5.55
2018-09-19T16:48:19.682Z,5.12
2018-09-19T16:50:47.199Z,6.10
2018-09-19T16:53:14.767Z,6.60
2018-09-19T16:55:42.299Z,6.92
2018-09-19T16:58:09.844Z,6.70
2018-09-19T17:00:37.365Z,7.08
2018-09-19T17:03:04.904Z,6.87
2018-09-19T17:05:32.498Z,7.20
2018-09-19T17:07:59.983Z,7.15
2018-09-19T17:10:27.505Z,7.95
2018-09-19T17:12:55.031Z,8.25
2018-09-19T17:15:22.619Z,9.23
2018-09-19T17:17:50.103Z,8.43
2018-09-19T17:20:17.616Z,8.60
2018-09-19T17:22:45.134Z,8.48
2018-09-19T17:25:12.665Z,8.73
2018-09-19T17:27:40.205Z,8.65
2018-09-19T17:30:07.728Z,9.08
2018-09-19T17:32:35.236Z,9.35
2018-09-19T17:35:02.796Z,9.50
2018-09-19T17:37:30.331Z,9.45
2018-09-19T17:39:57.861Z,9.43
2018-09-19T17:42:25.382Z,8.95
2018-09-19T17:44:52.906Z,9.48
2018-09-19T17:47:20.447Z,9.20
2018-09-19T17:49:48.033Z,8.88
2018-09-19T17:52:15.518Z,8.60
2018-09-19T17:54:43.049Z,9.00
2018-09-19T17:57:10.580Z,9.30
2018-09-19T17:59:38.115Z,9.48
2018-09-19T18:02:05.635Z,9.98
2018-09-19T18:04:33.178Z,8.63
2018-09-19T18:07:00.711Z,8.73
2018-09-19T18:09:28.232Z,10.30
2018-09-19T18:11:55.743Z,10.23
2018-09-19T18:14:23.284Z,8.80
2018-09-19T18:16:50.792Z,8.83
2018-09-19T18:19:18.290Z,8.05
2018-09-19T18:21:45.830Z,8.20
2018-09-19T18:24:13.351Z,8.28
2018-09-19T18:26:40.872Z,7.67
2018-09-19T18:29:08.407Z,7.37
2018-09-19T18:31:35.924Z,7.42
2018-09-19T18:34:03.447Z,7.28
2018-09-19T18:36:30.967Z,7.62
2018-09-19T18:38:58.509Z,7.58
2018-09-19T18:41:26.051Z,7.08
2018-09-19T18:43:53.606Z,6.92
2018-09-19T18:46:21.128Z,7.33
2018-09-19T18:48:48.655Z,6.90
2018-09-19T18:51:16.175Z,5.92
2018-09-19T18:53:43.683Z,6.40
2018-09-19T18:56:11.203Z,6.53
2018-09-19T18:58:38.722Z,6.35
2018-09-19T19:01:06.508Z,6.00
2018-09-19T19:03:34.038Z,5.92
2018-09-19T19:06:01.611Z,6.30
2018-09-19T19:08:29.079Z,5.87
2018-09-19T19:10:56.603Z,5.80
2018-09-19T19:13:24.115Z,5.80
2018-09-19T19:15:51.633Z,5.50
2018-09-19T19:18:19.143Z,5.30
2018-09-19T19:21:16.838Z,5.53
2018-09-19T19:23:44.363Z,5.10
2018-09-19T19:32:25.439Z,4.80
2018-09-19T19:34:52.975Z,5.10
2018-09-19T19:37:20.543Z,5.42
2018-09-19T19:42:49.233Z,4.72
2018-09-19T19:45:16.785Z,4.65
2018-09-19T19:47:44.320Z,5.08
2018-09-19T19:50:11.852Z,4.80
2018-09-19T19:52:39.393Z,4.90
2018-09-19T19:55:06.973Z,4.30
2018-09-19T19:57:34.503Z,4.50
2018-09-19T20:00:02.075Z,4.60
2018-09-19T20:02:29.621Z,4.40
2018-09-19T20:04:57.272Z,4.53
2018-09-19T20:07:24.797Z,4.83
2018-09-19T20:09:52.340Z,4.62
2018-09-19T20:12:19.893Z,4.95
2018-09-19T20:14:47.430Z,4.33
2018-09-19T20:17:14.951Z,4.72
2018-09-19T20:19:42.491Z,4.60
2018-09-19T20:22:10.465Z,4.40
2018-09-19T20:24:38.207Z,4.87
2018-09-19T20:27:06.351Z,4.72
2018-09-19T20:29:33.908Z,4.80
2018-09-19T20:32:01.458Z,4.30
2018-09-19T20:34:28.988Z,4.80
2018-09-19T20:36:56.515Z,4.50
2018-09-19T20:39:24.024Z,4.58
2018-09-19T20:41:51.551Z,4.72
2018-09-19T20:44:19.069Z,4.42
2018-09-19T20:46:46.616Z,4.47
2018-09-19T20:49:14.123Z,4.87
2018-09-19T20:51:41.655Z,4.97
2018-09-19T20:54:09.177Z,4.65
2018-09-19T20:56:36.694Z,4.33
2018-09-19T20:59:04.776Z,4.37
2018-09-19T21:01:32.303Z,4.58
2018-09-19T21:03:59.812Z,4.62
2018-09-19T21:06:27.343Z,4.55
2018-09-19T21:09:00.840Z,4.20
2018-09-19T21:11:28.363Z,5.20
2018-09-19T21:16:57.327Z,5.05
2018-09-19T21:19:24.844Z,5.15
2018-09-19T21:21:52.419Z,5.20
2018-09-19T21:24:19.929Z,5.15
2018-09-19T21:26:47.468Z,4.50
2018-09-19T21:29:23.624Z,5.10
2018-09-19T21:44:09.676Z,4.90
2018-09-19T21:49:37.911Z,4.80
2018-09-19T21:52:05.615Z,5.53
2018-09-19T21:54:33.142Z,4.75
2018-09-19T21:57:00.671Z,4.80
2018-09-19T21:59:28.192Z,4.72
2018-09-19T22:01:58.839Z,4.85
2018-09-19T22:04:26.627Z,5.30
2018-09-19T22:06:54.195Z,4.62
2018-09-19T22:09:21.716Z,5.03
2018-09-19T22:11:49.236Z,5.25
2018-09-19T22:14:16.764Z,4.62
2018-09-19T22:16:44.279Z,4.87
2018-09-19T22:19:11.824Z,4.53
2018-09-19T22:21:39.370Z,4.85
2018-09-19T22:24:07.015Z,4.78
2018-09-19T22:29:35.336Z,5.33
2018-09-19T22:32:22.400Z,4.87
2018-09-19T22:34:49.925Z,4.78
2018-09-19T22:37:17.506Z,5.55
2018-09-19T22:39:45.047Z,4.45
2018-09-19T22:42:12.644Z,4.40
2018-09-19T22:44:40.259Z,4.40
2018-09-19T22:47:07.820Z,4.60
2018-09-19T22:49:35.387Z,4.60
2018-09-19T22:52:02.937Z,5.00
2018-09-19T22:54:30.467Z,4.67
2018-09-19T22:56:58.007Z,4.72
2018-09-19T22:59:25.551Z,5.00
2018-09-19T23:01:53.118Z,4.80
2018-09-19T23:04:20.646Z,4.50
2018-09-19T23:06:48.183Z,4.67
2018-09-19T23:09:15.720Z,5.33
2018-09-19T23:11:43.264Z,4.37
2018-09-19T23:14:10.808Z,5.12
2018-09-19T23:16:38.369Z,4.92
2018-09-19T23:19:05.908Z,4.80
2018-09-19T23:21:33.452Z,4.87
2018-09-19T23:24:00.975Z,4.70
2018-09-19T23:26:28.515Z,4.70
2018-09-19T23:28:56.048Z,4.37
2018-09-19T23:31:23.590Z,4.60
2018-09-19T23:33:51.144Z,4.55
2018-09-19T23:36:18.971Z,5.05
2018-09-19T23:38:46.565Z,4.45
2018-09-19T23:41:14.116Z,5.20
2018-09-19T23:43:41.638Z,4.78
2018-09-19T23:46:09.175Z,4.87
2018-09-19T23:48:36.717Z,5.05
2018-09-19T23:51:04.268Z,5.12
2018-09-19T23:53:31.816Z,5.08
2018-09-19T23:55:59.364Z,5.15
2018-09-19T23:58:26.907Z,5.33
